HMZ weather

Bedford County Airport
Bedford, Pennsylvania, United States

Public forecast

Using degrees Fahrenheit for public forecast. Weather courtesy of forecast.io.

METAR (pilot weather report)

Retrieved 2019/05/24 11:35 UTC (0 seconds ago):

KHMZ 241135Z AUTO 32006KT 10SM CLR 16/08 A3009 RMK AO2 T01580081

TAF (pilot weather forecast)

Closest forecast is Altoona Blair County Airport, 15.4 nm (28.6 km) NE. Retrieved 2019/05/24 06:48 UTC (4 hours ago):

TAF KAOO 240546Z 2406/2506 31011G19KT P6SM FEW022 BKN050 OVC100 FM241400 31012G20KT P6SM SCT050 FM250300 02003KT P6SM OVC100